PWSweather.com
Personal Weather Stations
Station Observations
SHAHALMS1
Eftra, Falkenberg, HA

EftraFalkenberg, HA

Lat: 56.85, Lon: 12.65

Elevation: 140

Station Type:

http://hem.passagen.se/risarp101

High Low Average
Temperature 46.9°F8.3°C 27.1°F-2.7°C 36.7°F2.6°C
Dew Point 26.3°F-3.2°C 10.2°F-12.1°C 18.8°F-7.3°C
Winds 9.8 mph 15.8 kmh Calm Calm 3.0 mph E4.8 kmh E
Wind Gusts 21.1 mph34.0 kmh -- 8.0 mph12.9 kmh
Humidity 68% 28% 50%
Pressure 30.48 in1032.2 mb 30.39 in1029.1 mb -
Precipitation 0.00 in0.0 mm - -
Hour Temp Dew Point Humidity Winds Wind Gusts Pressure Precip Precip Rate Daily Precip Total
12:00 AM 31.1°F-0.5°C 10.6°F-11.9°C 42% 3.1 mph E5.0 kmh E 9.3 mph15.0 kmh 30.42 in1030.1 mb 0.00 in0.0 mm 0.00 in0.0 mm 0.00 in0.0 mm
12:15 AM 30.6°F-0.8°C 10.2°F-12.1°C 42% 0.1 mph E0.2 kmh E 4.7 mph7.6 kmh 30.42 in1030.1 mb 0.00 in0.0 mm 0.00 in0.0 mm 0.00 in0.0 mm
12:30 AM 30.4°F-0.9°C 11.5°F-11.4°C 45% 1.3 mph E2.1 kmh E 7.5 mph12.1 kmh 30.42 in1030.1 mb 0.00 in0.0 mm 0.00 in0.0 mm 0.00 in0.0 mm
12:45 AM 30.7°F-0.7°C 12.4°F-10.9°C 46% 0.9 mph E1.4 kmh E 8.9 mph14.3 kmh 30.42 in1030.1 mb 0.00 in0.0 mm 0.00 in0.0 mm 0.00 in0.0 mm
01:00 AM 30.2°F-1.0°C 12.4°F-10.9°C 47% 0.1 mph E0.2 kmh E 2.5 mph4.0 kmh 30.42 in1030.1 mb 0.00 in0.0 mm 0.00 in0.0 mm 0.00 in0.0 mm
01:15 AM 30.0°F-1.1°C 12.7°F-10.7°C 48% 0.4 mph E0.6 kmh E 5.4 mph8.7 kmh 30.42 in1030.1 mb 0.00 in0.0 mm 0.00 in0.0 mm 0.00 in0.0 mm
01:30 AM 29.8°F-1.2°C 13.0°F-10.6°C 49% 0.8 mph E1.3 kmh E 6.8 mph10.9 kmh 30.42 in1030.1 mb 0.00 in0.0 mm 0.00 in0.0 mm 0.00 in0.0 mm
01:45 AM 29.5°F-1.4°C 13.1°F-10.5°C 50% Calm Calm -- 30.42 in1030.1 mb 0.00 in0.0 mm 0.00 in0.0 mm 0.00 in0.0 mm
02:00 AM 28.2°F-2.1°C 11.9°F-11.2°C 50% Calm Calm -- 30.42 in1030.1 mb 0.00 in0.0 mm 0.00 in0.0 mm 0.00 in0.0 mm
02:15 AM 27.1°F-2.7°C 11.4°F-11.4°C 51% Calm Calm -- 30.42 in1030.1 mb 0.00 in0.0 mm 0.00 in0.0 mm 0.00 in0.0 mm
02:30 AM 27.5°F-2.5°C 13.8°F-10.1°C 56% 2.0 mph ESE3.2 kmh ESE 7.9 mph12.7 kmh 30.45 in1031.2 mb 0.00 in0.0 mm 0.00 in0.0 mm 0.00 in0.0 mm
02:45 AM 27.1°F-2.7°C 14.7°F-9.6°C 59% Calm Calm -- 30.42 in1030.1 mb 0.00 in0.0 mm 0.00 in0.0 mm 0.00 in0.0 mm
03:00 AM 27.3°F-2.6°C 15.6°F-9.1°C 61% Calm Calm -- 30.42 in1030.1 mb 0.00 in0.0 mm 0.00 in0.0 mm 0.00 in0.0 mm
03:15 AM 27.7°F-2.4°C 16.7°F-8.5°C 63% 0.1 mph E0.2 kmh E 6.8 mph10.9 kmh 30.39 in1029.1 mb 0.00 in0.0 mm 0.00 in0.0 mm 0.00 in0.0 mm
03:30 AM 27.9°F-2.3°C 16.9°F-8.4°C 63% 7.3 mph E11.7 kmh E 11.5 mph18.5 kmh 30.39 in1029.1 mb 0.00 in0.0 mm 0.00 in0.0 mm 0.00 in0.0 mm
03:45 AM 27.3°F-2.6°C 16.4°F-8.7°C 63% 2.9 mph E4.7 kmh E 10.0 mph16.1 kmh 30.39 in1029.1 mb 0.00 in0.0 mm 0.00 in0.0 mm 0.00 in0.0 mm
04:00 AM 27.1°F-2.7°C 16.9°F-8.4°C 65% 5.6 mph E9.0 kmh E 10.0 mph16.1 kmh 30.42 in1030.1 mb 0.00 in0.0 mm 0.00 in0.0 mm 0.00 in0.0 mm
04:15 AM 27.7°F-2.4°C 17.8°F-7.9°C 66% 6.0 mph E9.7 kmh E 10.0 mph16.1 kmh 30.42 in1030.1 mb 0.00 in0.0 mm 0.00 in0.0 mm 0.00 in0.0 mm
04:30 AM 28.0°F-2.2°C 18.1°F-7.7°C 66% 6.0 mph E9.7 kmh E 10.4 mph16.7 kmh 30.42 in1030.1 mb 0.00 in0.0 mm 0.00 in0.0 mm 0.00 in0.0 mm
04:45 AM 27.9°F-2.3°C 18.0°F-7.8°C 66% 5.3 mph E8.5 kmh E 10.4 mph16.7 kmh 30.42 in1030.1 mb 0.00 in0.0 mm 0.00 in0.0 mm 0.00 in0.0 mm
05:00 AM 27.5°F-2.5°C 17.6°F-8.0°C 66% 5.4 mph E8.7 kmh E 10.4 mph16.7 kmh 30.42 in1030.1 mb 0.00 in0.0 mm 0.00 in0.0 mm 0.00 in0.0 mm
05:15 AM 27.5°F-2.5°C 18.0°F-7.8°C 67% 3.7 mph E6.0 kmh E 9.3 mph15.0 kmh 30.45 in1031.2 mb 0.00 in0.0 mm 0.00 in0.0 mm 0.00 in0.0 mm
05:30 AM 27.9°F-2.3°C 18.7°F-7.4°C 68% 1.8 mph ESE2.9 kmh ESE 7.5 mph12.1 kmh 30.45 in1031.2 mb 0.00 in0.0 mm 0.00 in0.0 mm 0.00 in0.0 mm
05:45 AM 28.8°F-1.8°C 19.5°F-6.9°C 68% 0.1 mph E0.2 kmh E 2.1 mph3.4 kmh 30.45 in1031.2 mb 0.00 in0.0 mm 0.00 in0.0 mm 0.00 in0.0 mm
06:00 AM 29.3°F-1.5°C 19.7°F-6.8°C 67% Calm Calm -- 30.45 in1031.2 mb 0.00 in0.0 mm 0.00 in0.0 mm 0.00 in0.0 mm
06:15 AM 29.8°F-1.2°C 20.2°F-6.6°C 67% Calm Calm -- 30.48 in1032.2 mb 0.00 in0.0 mm 0.00 in0.0 mm 0.00 in0.0 mm
06:30 AM 31.8°F-0.1°C 22.1°F-5.5°C 67% Calm Calm -- 30.48 in1032.2 mb 0.00 in0.0 mm 0.00 in0.0 mm 0.00 in0.0 mm
06:45 AM 34.2°F1.2°C 24.3°F-4.3°C 67% Calm Calm -- 30.48 in1032.2 mb 0.00 in0.0 mm 0.00 in0.0 mm 0.00 in0.0 mm
07:00 AM 36.3°F2.4°C 25.3°F-3.7°C 64% 1.4 mph E2.3 kmh E 7.5 mph12.1 kmh 30.48 in1032.2 mb 0.00 in0.0 mm 0.00 in0.0 mm 0.00 in0.0 mm
07:15 AM 37.6°F3.1°C 25.7°F-3.5°C 62% 1.4 mph E2.3 kmh E 7.5 mph12.1 kmh 30.48 in1032.2 mb 0.00 in0.0 mm 0.00 in0.0 mm 0.00 in0.0 mm
07:30 AM 38.7°F3.7°C 26.0°F-3.3°C 60% 1.4 mph E2.3 kmh E 8.6 mph13.8 kmh 30.48 in1032.2 mb 0.00 in0.0 mm 0.00 in0.0 mm 0.00 in0.0 mm
07:45 AM 39.9°F4.4°C 26.3°F-3.2°C 58% 2.1 mph ENE3.4 kmh ENE 8.6 mph13.8 kmh 30.48 in1032.2 mb 0.00 in0.0 mm 0.00 in0.0 mm 0.00 in0.0 mm
08:00 AM 41.0°F5.0°C 25.2°F-3.8°C 53% 4.2 mph E6.8 kmh E 8.9 mph14.3 kmh 30.48 in1032.2 mb 0.00 in0.0 mm 0.00 in0.0 mm 0.00 in0.0 mm
08:15 AM 41.0°F5.0°C 24.2°F-4.3°C 51% 3.7 mph ENE6.0 kmh ENE 10.4 mph16.7 kmh 30.48 in1032.2 mb 0.00 in0.0 mm 0.00 in0.0 mm 0.00 in0.0 mm
08:30 AM 40.8°F4.9°C 20.6°F-6.3°C 44% 4.2 mph E6.8 kmh E 12.5 mph20.1 kmh 30.48 in1032.2 mb 0.00 in0.0 mm 0.00 in0.0 mm 0.00 in0.0 mm
08:45 AM 41.2°F5.1°C 18.7°F-7.4°C 40% 7.1 mph E11.4 kmh E 14.0 mph22.5 kmh 30.48 in1032.2 mb 0.00 in0.0 mm 0.00 in0.0 mm 0.00 in0.0 mm
09:00 AM 41.9°F5.5°C 18.1°F-7.7°C 38% 5.2 mph ENE8.4 kmh ENE 10.4 mph16.7 kmh 30.48 in1032.2 mb 0.00 in0.0 mm 0.00 in0.0 mm 0.00 in0.0 mm
09:15 AM 41.7°F5.4°C 16.0°F-8.9°C 35% 6.5 mph NE10.5 kmh NE 12.9 mph20.8 kmh 30.48 in1032.2 mb 0.00 in0.0 mm 0.00 in0.0 mm 0.00 in0.0 mm
09:30 AM 41.2°F5.1°C 15.6°F-9.1°C 35% 8.0 mph N12.9 kmh N 15.4 mph24.8 kmh 30.48 in1032.2 mb 0.00 in0.0 mm 0.00 in0.0 mm 0.00 in0.0 mm
09:45 AM 41.9°F5.5°C 16.9°F-8.4°C 36% 8.3 mph NNE13.4 kmh NNE 15.4 mph24.8 kmh 30.48 in1032.2 mb 0.00 in0.0 mm 0.00 in0.0 mm 0.00 in0.0 mm
10:00 AM 41.4°F5.2°C 15.1°F-9.4°C 34% 6.7 mph ENE10.8 kmh ENE 14.0 mph22.5 kmh 30.48 in1032.2 mb 0.00 in0.0 mm 0.00 in0.0 mm 0.00 in0.0 mm
10:15 AM 42.8°F6.0°C 16.3°F-8.7°C 34% 6.9 mph ENE11.1 kmh ENE 14.0 mph22.5 kmh 30.48 in1032.2 mb 0.00 in0.0 mm 0.00 in0.0 mm 0.00 in0.0 mm
10:30 AM 42.1°F5.6°C 15.0°F-9.4°C 33% 7.9 mph N12.7 kmh N 20.8 mph33.5 kmh 30.45 in1031.2 mb 0.00 in0.0 mm 0.00 in0.0 mm 0.00 in0.0 mm
10:45 AM 43.7°F6.5°C 15.7°F-9.1°C 32% 9.2 mph ENE14.8 kmh ENE 20.8 mph33.5 kmh 30.45 in1031.2 mb 0.00 in0.0 mm 0.00 in0.0 mm 0.00 in0.0 mm
11:00 AM 44.8°F7.1°C 16.7°F-8.5°C 32% 9.8 mph E15.8 kmh E 21.1 mph34.0 kmh 30.45 in1031.2 mb 0.00 in0.0 mm 0.00 in0.0 mm 0.00 in0.0 mm
11:15 AM 44.6°F7.0°C 16.5°F-8.6°C 32% 6.4 mph NNE10.3 kmh NNE 17.2 mph27.7 kmh 30.45 in1031.2 mb 0.00 in0.0 mm 0.00 in0.0 mm 0.00 in0.0 mm
11:30 AM 45.7°F7.6°C 17.5°F-8.1°C 32% 6.5 mph NE10.5 kmh NE 12.9 mph20.8 kmh 30.45 in1031.2 mb 0.00 in0.0 mm 0.00 in0.0 mm 0.00 in0.0 mm
11:45 AM 43.2°F6.2°C 14.5°F-9.7°C 31% 7.5 mph N12.1 kmh N 14.0 mph22.5 kmh 30.45 in1031.2 mb 0.00 in0.0 mm 0.00 in0.0 mm 0.00 in0.0 mm
12:00 PM 42.8°F6.0°C 14.9°F-9.5°C 32% 7.3 mph NNE11.7 kmh NNE 14.3 mph23.0 kmh 30.42 in1030.1 mb 0.00 in0.0 mm 0.00 in0.0 mm 0.00 in0.0 mm
12:15 PM 45.1°F7.3°C 17.0°F-8.3°C 32% 5.8 mph ENE9.3 kmh ENE 14.0 mph22.5 kmh 30.42 in1030.1 mb 0.00 in0.0 mm 0.00 in0.0 mm 0.00 in0.0 mm
12:30 PM 44.8°F7.1°C 15.2°F-9.3°C 30% 5.3 mph NE8.5 kmh NE 13.6 mph21.9 kmh 30.42 in1030.1 mb 0.00 in0.0 mm 0.00 in0.0 mm 0.00 in0.0 mm
12:45 PM 45.7°F7.6°C 16.7°F-8.5°C 31% 4.3 mph NNE6.9 kmh NNE 9.7 mph15.6 kmh 30.42 in1030.1 mb 0.00 in0.0 mm 0.00 in0.0 mm 0.00 in0.0 mm
01:00 PM 45.9°F7.7°C 16.9°F-8.4°C 31% 7.2 mph N11.6 kmh N 14.0 mph22.5 kmh 30.42 in1030.1 mb 0.00 in0.0 mm 0.00 in0.0 mm 0.00 in0.0 mm
01:15 PM 45.9°F7.7°C 15.3°F-9.3°C 29% 5.3 mph N8.5 kmh N 12.5 mph20.1 kmh 30.42 in1030.1 mb 0.00 in0.0 mm 0.00 in0.0 mm 0.00 in0.0 mm
01:30 PM 45.1°F7.3°C 15.5°F-9.2°C 30% 3.6 mph NE5.8 kmh NE 10.0 mph16.1 kmh 30.39 in1029.1 mb 0.00 in0.0 mm 0.00 in0.0 mm 0.00 in0.0 mm
01:45 PM 46.8°F8.2°C 16.1°F-8.8°C 29% 7.4 mph E11.9 kmh E 17.5 mph28.2 kmh 30.42 in1030.1 mb 0.00 in0.0 mm 0.00 in0.0 mm 0.00 in0.0 mm
02:00 PM 46.8°F8.2°C 15.3°F-9.3°C 28% 6.5 mph ESE10.5 kmh ESE 15.0 mph24.1 kmh 30.42 in1030.1 mb 0.00 in0.0 mm 0.00 in0.0 mm 0.00 in0.0 mm
02:15 PM 46.6°F8.1°C 16.0°F-8.9°C 29% 4.5 mph SE7.2 kmh SE 13.6 mph21.9 kmh 30.42 in1030.1 mb 0.00 in0.0 mm 0.00 in0.0 mm 0.00 in0.0 mm
02:30 PM 46.4°F8.0°C 19.5°F-6.9°C 34% 6.7 mph W10.8 kmh W 12.2 mph19.6 kmh 30.42 in1030.1 mb 0.00 in0.0 mm 0.00 in0.0 mm 0.00 in0.0 mm
02:45 PM 46.6°F8.1°C 20.4°F-6.4°C 35% 4.8 mph W7.7 kmh W 10.4 mph16.7 kmh 30.42 in1030.1 mb 0.00 in0.0 mm 0.00 in0.0 mm 0.00 in0.0 mm
03:00 PM 45.0°F7.2°C 20.2°F-6.6°C 37% 6.8 mph W10.9 kmh W 11.5 mph18.5 kmh 30.42 in1030.1 mb 0.00 in0.0 mm 0.00 in0.0 mm 0.00 in0.0 mm
03:15 PM 45.0°F7.2°C 22.1°F-5.5°C 40% 7.1 mph W11.4 kmh W 13.6 mph21.9 kmh 30.42 in1030.1 mb 0.00 in0.0 mm 0.00 in0.0 mm 0.00 in0.0 mm
03:30 PM 45.3°F7.4°C 22.4°F-5.3°C 40% 4.1 mph W6.6 kmh W 10.4 mph16.7 kmh 30.39 in1029.1 mb 0.00 in0.0 mm 0.00 in0.0 mm 0.00 in0.0 mm
03:45 PM 46.2°F7.9°C 24.4°F-4.2°C 42% 5.2 mph W8.4 kmh W 10.0 mph16.1 kmh 30.39 in1029.1 mb 0.00 in0.0 mm 0.00 in0.0 mm 0.00 in0.0 mm
04:00 PM 46.9°F8.3°C 25.6°F-3.6°C 43% 7.0 mph W11.3 kmh W 12.2 mph19.6 kmh 30.39 in1029.1 mb 0.00 in0.0 mm 0.00 in0.0 mm 0.00 in0.0 mm
04:15 PM 46.6°F8.1°C 24.1°F-4.4°C 41% 3.5 mph W5.6 kmh W 9.7 mph15.6 kmh 30.39 in1029.1 mb 0.00 in0.0 mm 0.00 in0.0 mm 0.00 in0.0 mm
04:30 PM 45.5°F7.5°C 25.4°F-3.7°C 45% 7.6 mph W12.2 kmh W 13.6 mph21.9 kmh 30.39 in1029.1 mb 0.00 in0.0 mm 0.00 in0.0 mm 0.00 in0.0 mm
04:45 PM 44.8°F7.1°C 25.2°F-3.8°C 46% 5.7 mph W9.2 kmh W 11.5 mph18.5 kmh 30.39 in1029.1 mb 0.00 in0.0 mm 0.00 in0.0 mm 0.00 in0.0 mm
05:00 PM 45.0°F7.2°C 25.9°F-3.4°C 47% 3.8 mph W6.1 kmh W 12.5 mph20.1 kmh 30.39 in1029.1 mb 0.00 in0.0 mm 0.00 in0.0 mm 0.00 in0.0 mm
05:15 PM 44.4°F6.9°C 25.4°F-3.7°C 47% 4.1 mph W6.6 kmh W 9.3 mph15.0 kmh 30.39 in1029.1 mb 0.00 in0.0 mm 0.00 in0.0 mm 0.00 in0.0 mm
05:30 PM 43.9°F6.6°C 25.4°F-3.7°C 48% 4.3 mph W6.9 kmh W 9.3 mph15.0 kmh 30.39 in1029.1 mb 0.00 in0.0 mm 0.00 in0.0 mm 0.00 in0.0 mm
05:45 PM 42.6°F5.9°C 24.3°F-4.3°C 48% 4.1 mph W6.6 kmh W 8.6 mph13.8 kmh 30.39 in1029.1 mb 0.00 in0.0 mm 0.00 in0.0 mm 0.00 in0.0 mm
06:00 PM 41.5°F5.3°C 23.8°F-4.6°C 49% 1.9 mph W3.1 kmh W 5.7 mph9.2 kmh 30.39 in1029.1 mb 0.00 in0.0 mm 0.00 in0.0 mm 0.00 in0.0 mm
06:15 PM 40.6°F4.8°C 23.4°F-4.8°C 50% 1.2 mph W1.9 kmh W 6.1 mph9.8 kmh 30.39 in1029.1 mb 0.00 in0.0 mm 0.00 in0.0 mm 0.00 in0.0 mm
06:30 PM 39.6°F4.2°C 22.9°F-5.1°C 51% Calm Calm -- 30.42 in1030.1 mb 0.00 in0.0 mm 0.00 in0.0 mm 0.00 in0.0 mm
06:45 PM 38.5°F3.6°C 21.9°F-5.6°C 51% 1.4 mph W2.3 kmh W 6.8 mph10.9 kmh 30.42 in1030.1 mb 0.00 in0.0 mm 0.00 in0.0 mm 0.00 in0.0 mm
07:00 PM 37.8°F3.2°C 21.7°F-5.7°C 52% 0.1 mph W0.2 kmh W 3.2 mph5.1 kmh 30.42 in1030.1 mb 0.00 in0.0 mm 0.00 in0.0 mm 0.00 in0.0 mm
07:15 PM 36.7°F2.6°C 21.1°F-6.1°C 53% Calm Calm -- 30.42 in1030.1 mb 0.00 in0.0 mm 0.00 in0.0 mm 0.00 in0.0 mm
07:30 PM 35.8°F2.1°C 20.3°F-6.5°C 53% Calm Calm -- 30.42 in1030.1 mb 0.00 in0.0 mm 0.00 in0.0 mm 0.00 in0.0 mm
07:45 PM 34.9°F1.6°C 19.9°F-6.7°C 54% Calm Calm -- 30.42 in1030.1 mb 0.00 in0.0 mm 0.00 in0.0 mm 0.00 in0.0 mm
08:00 PM 33.3°F0.7°C 19.2°F-7.1°C 56% Calm Calm -- 30.42 in1030.1 mb 0.00 in0.0 mm 0.00 in0.0 mm 0.00 in0.0 mm
08:15 PM 32.4°F0.2°C 20.0°F-6.7°C 60% Calm Calm -- 30.42 in1030.1 mb 0.00 in0.0 mm 0.00 in0.0 mm 0.00 in0.0 mm
08:30 PM 32.0°F0.0°C 20.8°F-6.2°C 63% 0.1 mph E0.2 kmh E 3.9 mph6.3 kmh 30.42 in1030.1 mb 0.00 in0.0 mm 0.00 in0.0 mm 0.00 in0.0 mm
08:45 PM 31.6°F-0.2°C 20.1°F-6.6°C 62% 0.1 mph ESE0.2 kmh ESE 3.2 mph5.1 kmh 30.39 in1029.1 mb 0.00 in0.0 mm 0.00 in0.0 mm 0.00 in0.0 mm
09:02 PM 30.9°F-0.6°C 19.4°F-7.0°C 62% Calm Calm -- 30.39 in1029.1 mb 0.00 in0.0 mm 0.00 in0.0 mm 0.00 in0.0 mm
09:15 PM 30.2°F-1.0°C 18.7°F-7.4°C 62% Calm Calm -- 30.42 in1030.1 mb 0.00 in0.0 mm 0.00 in0.0 mm 0.00 in0.0 mm
09:30 PM 29.7°F-1.3°C 18.6°F-7.4°C 63% Calm Calm -- 30.42 in1030.1 mb 0.00 in0.0 mm 0.00 in0.0 mm 0.00 in0.0 mm
09:45 PM 30.2°F-1.0°C 19.8°F-6.8°C 65% 0.5 mph SE0.8 kmh SE 4.7 mph7.6 kmh 30.45 in1031.2 mb 0.00 in0.0 mm 0.00 in0.0 mm 0.00 in0.0 mm
10:00 PM 30.0°F-1.1°C 19.7°F-6.8°C 65% Calm Calm -- 30.45 in1031.2 mb 0.00 in0.0 mm 0.00 in0.0 mm 0.00 in0.0 mm
10:15 PM 29.5°F-1.4°C 19.2°F-7.1°C 65% Calm Calm -- 30.45 in1031.2 mb 0.00 in0.0 mm 0.00 in0.0 mm 0.00 in0.0 mm
10:30 PM 28.9°F-1.7°C 18.6°F-7.4°C 65% Calm Calm -- 30.45 in1031.2 mb 0.00 in0.0 mm 0.00 in0.0 mm 0.00 in0.0 mm
10:45 PM 29.1°F-1.6°C 18.8°F-7.3°C 65% 0.2 mph SE0.3 kmh SE 6.1 mph9.8 kmh 30.45 in1031.2 mb 0.00 in0.0 mm 0.00 in0.0 mm 0.00 in0.0 mm
11:00 PM 30.2°F-1.0°C 19.1°F-7.2°C 63% 5.4 mph SE8.7 kmh SE 9.3 mph15.0 kmh 30.45 in1031.2 mb 0.00 in0.0 mm 0.00 in0.0 mm 0.00 in0.0 mm
11:15 PM 30.4°F-0.9°C 18.5°F-7.5°C 61% 3.6 mph SE5.8 kmh SE 9.7 mph15.6 kmh 30.45 in1031.2 mb 0.00 in0.0 mm 0.00 in0.0 mm 0.00 in0.0 mm
11:30 PM 30.4°F-0.9°C 18.1°F-7.7°C 60% 5.8 mph SE9.3 kmh SE 9.3 mph15.0 kmh 30.48 in1032.2 mb 0.00 in0.0 mm 0.00 in0.0 mm 0.00 in0.0 mm
11:45 PM 30.2°F-1.0°C 17.6°F-8.0°C 59% 5.2 mph SE8.4 kmh SE 10.0 mph16.1 kmh 30.45 in1031.2 mb 0.00 in0.0 mm 0.00 in0.0 mm 0.00 in0.0 mm